RYR1LK EDDF-EKCH
Flight info
| Callsign | RYR1LK |
|---|---|
| Flight time | 1h 3m |
| Altitude | 31000 |
| Route | MARUN3W/25C MARUN Y150 TOLGI DCT SAS DCT MAKEL N851 GESKA Z711 MONAK |
| Aircraft | B738/M-SDE2E3FGHIRWXY/LB1 |
Departure
| Time | 2026-05-04 17:52 |
|---|---|
| Airport | Frankfurt Main Airport (EDDF) |
Arrival
| Time | 2026-05-04 18:56 |
|---|---|
| Airport | Copenhagen Kastrup Airport (EKCH) |
| Time | Latitude | Longitude | Altitude | Speed | Heading |
|---|---|---|---|---|---|
| 2026-05-04 17:25 | 50.03955 | 8.55112 | 353 ft | 0 kts | 160° |
| 2026-05-04 17:39 | 50.03954 | 8.55112 | 345 ft | 0 kts | 160° |
| 2026-05-04 17:41 | 50.03953 | 8.55113 | 345 ft | 1 kts | 159° |
| 2026-05-04 17:41 | 50.03933 | 8.55123 | 345 ft | 6 kts | 160° |
| 2026-05-04 17:41 | 50.03888 | 8.55153 | 350 ft | 8 kts | 148° |
| 2026-05-04 17:42 | 50.03877 | 8.55225 | 348 ft | 7 kts | 75° |
| 2026-05-04 17:42 | 50.03895 | 8.55307 | 351 ft | 10 kts | 69° |
| 2026-05-04 17:42 | 50.03926 | 8.55438 | 348 ft | 15 kts | 70° |
| 2026-05-04 17:42 | 50.03964 | 8.55596 | 350 ft | 15 kts | 69° |
| 2026-05-04 17:43 | 50.03999 | 8.55743 | 352 ft | 14 kts | 70° |
| 2026-05-04 17:43 | 50.04030 | 8.55878 | 352 ft | 13 kts | 70° |
| 2026-05-04 17:43 | 50.04067 | 8.56033 | 345 ft | 20 kts | 70° |
| 2026-05-04 17:43 | 50.04124 | 8.56275 | 350 ft | 25 kts | 67° |
| 2026-05-04 17:44 | 50.04184 | 8.56517 | 352 ft | 23 kts | 70° |
| 2026-05-04 17:44 | 50.04239 | 8.56749 | 345 ft | 22 kts | 69° |
| 2026-05-04 17:44 | 50.04292 | 8.56971 | 353 ft | 22 kts | 70° |
| 2026-05-04 17:44 | 50.04343 | 8.57190 | 352 ft | 21 kts | 70° |
| 2026-05-04 17:45 | 50.04394 | 8.57402 | 352 ft | 21 kts | 70° |
| 2026-05-04 17:45 | 50.04443 | 8.57608 | 349 ft | 20 kts | 70° |
| 2026-05-04 17:45 | 50.04490 | 8.57807 | 351 ft | 19 kts | 70° |
| 2026-05-04 17:45 | 50.04535 | 8.57998 | 350 ft | 19 kts | 70° |
| 2026-05-04 17:46 | 50.04581 | 8.58185 | 350 ft | 18 kts | 69° |
| 2026-05-04 17:46 | 50.04624 | 8.58362 | 345 ft | 17 kts | 69° |
| 2026-05-04 17:46 | 50.04659 | 8.58514 | 354 ft | 10 kts | 83° |
| 2026-05-04 17:46 | 50.04646 | 8.58554 | 348 ft | 0 kts | 149° |
| 2026-05-04 17:49 | 50.04646 | 8.58555 | 348 ft | 0 kts | 149° |
| 2026-05-04 17:49 | 50.04636 | 8.58563 | 350 ft | 4 kts | 149° |
| 2026-05-04 17:50 | 50.04603 | 8.58583 | 346 ft | 7 kts | 160° |
| 2026-05-04 17:50 | 50.04548 | 8.58614 | 350 ft | 10 kts | 160° |
| 2026-05-04 17:50 | 50.04487 | 8.58582 | 345 ft | 11 kts | 249° |
| 2026-05-04 17:50 | 50.04473 | 8.58521 | 350 ft | 0 kts | 249° |
| 2026-05-04 17:51 | 50.04472 | 8.58519 | 351 ft | 4 kts | 249° |
| 2026-05-04 17:51 | 50.04382 | 8.58142 | 348 ft | 69 kts | 249° |
| 2026-05-04 17:51 | 50.04147 | 8.57169 | 353 ft | 123 kts | 250° |
| 2026-05-04 17:51 | 50.03797 | 8.55703 | 365 ft | 162 kts | 250° |
| 2026-05-04 17:52 | 50.03372 | 8.53965 | 762 ft | 190 kts | 251° |
| 2026-05-04 17:52 | 50.02848 | 8.51866 | 1368 ft | 222 kts | 249° |
| 2026-05-04 17:52 | 50.02173 | 8.49613 | 2232 ft | 234 kts | 239° |
| 2026-05-04 17:52 | 50.00992 | 8.48003 | 3100 ft | 228 kts | 202° |
| 2026-05-04 17:53 | 49.99460 | 8.47624 | 3950 ft | 221 kts | 181° |
| 2026-05-04 17:53 | 49.97950 | 8.47428 | 4799 ft | 214 kts | 186° |
| 2026-05-04 17:53 | 49.96395 | 8.47123 | 5100 ft | 236 kts | 187° |
| 2026-05-04 17:53 | 49.94714 | 8.46557 | 5316 ft | 257 kts | 195° |
| 2026-05-04 17:54 | 49.92990 | 8.45741 | 5920 ft | 263 kts | 199° |
| 2026-05-04 17:54 | 49.91463 | 8.44184 | 6742 ft | 266 kts | 230° |
| 2026-05-04 17:54 | 49.90666 | 8.41603 | 7707 ft | 269 kts | 257° |
| 2026-05-04 17:54 | 49.90759 | 8.38714 | 8588 ft | 278 kts | 286° |
| 2026-05-04 17:55 | 49.91852 | 8.36182 | 9466 ft | 291 kts | 318° |
| 2026-05-04 17:55 | 49.93664 | 8.34794 | 10253 ft | 299 kts | 338° |
| 2026-05-04 17:55 | 49.95629 | 8.33658 | 11011 ft | 302 kts | 335° |
| 2026-05-04 17:55 | 49.97589 | 8.32403 | 11787 ft | 306 kts | 334° |
| 2026-05-04 17:56 | 49.99566 | 8.31114 | 12589 ft | 309 kts | 334° |
| 2026-05-04 17:56 | 50.01567 | 8.29807 | 13380 ft | 312 kts | 334° |
| 2026-05-04 17:56 | 50.03568 | 8.28559 | 14109 ft | 318 kts | 341° |
| 2026-05-04 17:56 | 50.05806 | 8.28320 | 14752 ft | 329 kts | 8° |
| 2026-05-04 17:57 | 50.08021 | 8.29262 | 15551 ft | 330 kts | 17° |
| 2026-05-04 17:57 | 50.10221 | 8.30434 | 16208 ft | 336 kts | 18° |
| 2026-05-04 17:57 | 50.12445 | 8.31656 | 16873 ft | 340 kts | 18° |
| 2026-05-04 17:57 | 50.14670 | 8.32870 | 17570 ft | 344 kts | 18° |
| 2026-05-04 17:58 | 50.16956 | 8.34100 | 18265 ft | 348 kts | 17° |
| 2026-05-04 17:58 | 50.19267 | 8.35328 | 18858 ft | 351 kts | 17° |
| 2026-05-04 17:58 | 50.21577 | 8.36547 | 19482 ft | 354 kts | 17° |
| 2026-05-04 17:58 | 50.23932 | 8.37786 | 20101 ft | 357 kts | 17° |
| 2026-05-04 17:59 | 50.26276 | 8.39020 | 20695 ft | 360 kts | 17° |
| 2026-05-04 17:59 | 50.28672 | 8.40283 | 21301 ft | 363 kts | 17° |
| 2026-05-04 17:59 | 50.33487 | 8.42881 | 22413 ft | 373 kts | 18° |
| 2026-05-04 18:00 | 50.35984 | 8.44246 | 22641 ft | 387 kts | 17° |
| 2026-05-04 18:00 | 50.38540 | 8.45646 | 23146 ft | 391 kts | 17° |
| 2026-05-04 18:00 | 50.41124 | 8.47062 | 23782 ft | 391 kts | 17° |
| 2026-05-04 18:00 | 50.43712 | 8.48479 | 24257 ft | 395 kts | 17° |
| 2026-05-04 18:01 | 50.46296 | 8.49894 | 24669 ft | 400 kts | 17° |
| 2026-05-04 18:01 | 50.48958 | 8.51319 | 25111 ft | 403 kts | 15° |
| 2026-05-04 18:01 | 50.51624 | 8.52615 | 25588 ft | 405 kts | 14° |
| 2026-05-04 18:02 | 50.57085 | 8.55161 | 26490 ft | 411 kts | 13° |
| 2026-05-04 18:02 | 50.59837 | 8.56457 | 27060 ft | 410 kts | 13° |
| 2026-05-04 18:02 | 50.62525 | 8.57739 | 27711 ft | 407 kts | 13° |
| 2026-05-04 18:02 | 50.65259 | 8.59051 | 28285 ft | 406 kts | 13° |
| 2026-05-04 18:03 | 50.67943 | 8.60342 | 28714 ft | 409 kts | 13° |
| 2026-05-04 18:03 | 50.70675 | 8.61658 | 29170 ft | 411 kts | 13° |
| 2026-05-04 18:03 | 50.73410 | 8.62980 | 29753 ft | 408 kts | 13° |
| 2026-05-04 18:03 | 50.76122 | 8.64295 | 30310 ft | 406 kts | 13° |
| 2026-05-04 18:04 | 50.78791 | 8.65591 | 30731 ft | 406 kts | 13° |
| 2026-05-04 18:04 | 50.81443 | 8.67218 | 31002 ft | 414 kts | 30° |
| 2026-05-04 18:04 | 50.85399 | 8.73752 | 31976 ft | 410 kts | 53° |
| 2026-05-04 18:05 | 50.87115 | 8.77438 | 31919 ft | 421 kts | 54° |
| 2026-05-04 18:05 | 50.88870 | 8.81207 | 32189 ft | 422 kts | 52° |
| 2026-05-04 18:05 | 50.90922 | 8.84470 | 32622 ft | 417 kts | 30° |
| 2026-05-04 18:05 | 50.93450 | 8.86543 | 33064 ft | 411 kts | 20° |
| 2026-05-04 18:06 | 50.98961 | 8.89985 | 33013 ft | 432 kts | 18° |
| 2026-05-04 18:06 | 51.01756 | 8.91771 | 32962 ft | 443 kts | 19° |
| 2026-05-04 18:06 | 51.04636 | 8.93729 | 32997 ft | 452 kts | 21° |
| 2026-05-04 18:07 | 51.10449 | 8.97972 | 32993 ft | 470 kts | 22° |
| 2026-05-04 18:07 | 51.16458 | 9.02578 | 33110 ft | 482 kts | 23° |
| 2026-05-04 18:08 | 51.19484 | 9.04922 | 33288 ft | 485 kts | 23° |
| 2026-05-04 18:08 | 51.22494 | 9.07258 | 33644 ft | 484 kts | 23° |
| 2026-05-04 18:08 | 51.25525 | 9.09612 | 34070 ft | 481 kts | 23° |
| 2026-05-04 18:08 | 51.28544 | 9.11956 | 34411 ft | 479 kts | 23° |
| 2026-05-04 18:09 | 51.34536 | 9.16607 | 34846 ft | 481 kts | 23° |
| 2026-05-04 18:09 | 51.40571 | 9.21298 | 34935 ft | 486 kts | 23° |
| 2026-05-04 18:10 | 51.46637 | 9.26031 | 34964 ft | 481 kts | 23° |
| 2026-05-04 18:10 | 51.52613 | 9.30709 | 34982 ft | 479 kts | 23° |
| 2026-05-04 18:11 | 51.58626 | 9.35427 | 34975 ft | 479 kts | 23° |
| 2026-05-04 18:11 | 51.64591 | 9.40121 | 34995 ft | 479 kts | 23° |
| 2026-05-04 18:12 | 51.70592 | 9.44857 | 34962 ft | 481 kts | 23° |
| 2026-05-04 18:12 | 51.76582 | 9.49600 | 34971 ft | 481 kts | 23° |
| 2026-05-04 18:13 | 51.82578 | 9.54362 | 34985 ft | 481 kts | 23° |
| 2026-05-04 18:14 | 51.91584 | 9.61540 | 34984 ft | 482 kts | 23° |
| 2026-05-04 18:14 | 51.96595 | 9.65549 | 34985 ft | 482 kts | 23° |
| 2026-05-04 18:15 | 52.08647 | 9.75230 | 34974 ft | 483 kts | 23° |
| 2026-05-04 18:16 | 52.14650 | 9.80074 | 34985 ft | 484 kts | 23° |
| 2026-05-04 18:16 | 52.20667 | 9.84944 | 34983 ft | 483 kts | 23° |
| 2026-05-04 18:17 | 52.29726 | 9.92304 | 34974 ft | 483 kts | 23° |
| 2026-05-04 18:18 | 52.38738 | 9.99661 | 34983 ft | 482 kts | 23° |
| 2026-05-04 18:18 | 52.44734 | 10.04574 | 34938 ft | 482 kts | 23° |
| 2026-05-04 18:19 | 52.53701 | 10.11949 | 34939 ft | 481 kts | 23° |
| 2026-05-04 18:19 | 52.59701 | 10.16903 | 34952 ft | 481 kts | 23° |
| 2026-05-04 18:20 | 52.65652 | 10.21831 | 34938 ft | 481 kts | 23° |
| 2026-05-04 18:20 | 52.71639 | 10.26805 | 34944 ft | 480 kts | 23° |
| 2026-05-04 18:21 | 52.77598 | 10.31771 | 34948 ft | 480 kts | 23° |
| 2026-05-04 18:21 | 52.83540 | 10.36737 | 34952 ft | 481 kts | 22° |
| 2026-05-04 18:22 | 52.89538 | 10.41766 | 34941 ft | 481 kts | 22° |
| 2026-05-04 18:22 | 52.95489 | 10.46772 | 34949 ft | 481 kts | 22° |
| 2026-05-04 18:23 | 53.01465 | 10.51814 | 34953 ft | 481 kts | 22° |
| 2026-05-04 18:23 | 53.07429 | 10.56862 | 34944 ft | 481 kts | 22° |
| 2026-05-04 18:24 | 53.13417 | 10.61946 | 34961 ft | 481 kts | 23° |
| 2026-05-04 18:24 | 53.19346 | 10.66995 | 34947 ft | 482 kts | 23° |
| 2026-05-04 18:25 | 53.25336 | 10.72112 | 34955 ft | 482 kts | 23° |
| 2026-05-04 18:25 | 53.31289 | 10.77216 | 34937 ft | 482 kts | 22° |
| 2026-05-04 18:26 | 53.37230 | 10.82324 | 34959 ft | 481 kts | 22° |
| 2026-05-04 18:26 | 53.43193 | 10.87467 | 34966 ft | 480 kts | 22° |
| 2026-05-04 18:27 | 53.49139 | 10.92612 | 34956 ft | 479 kts | 22° |
| 2026-05-04 18:27 | 53.55058 | 10.97750 | 34946 ft | 479 kts | 22° |
| 2026-05-04 18:28 | 53.60924 | 11.02858 | 34955 ft | 477 kts | 22° |
| 2026-05-04 18:28 | 53.66814 | 11.08003 | 34971 ft | 475 kts | 22° |
| 2026-05-04 18:29 | 53.72651 | 11.13118 | 34969 ft | 472 kts | 22° |
| 2026-05-04 18:29 | 53.75543 | 11.15663 | 34835 ft | 462 kts | 22° |
| 2026-05-04 18:29 | 53.78404 | 11.18183 | 34228 ft | 463 kts | 22° |
| 2026-05-04 18:30 | 53.84182 | 11.23262 | 32368 ft | 477 kts | 22° |
| 2026-05-04 18:30 | 53.87165 | 11.25888 | 31350 ft | 487 kts | 22° |
| 2026-05-04 18:30 | 53.90202 | 11.28570 | 30364 ft | 495 kts | 23° |
| 2026-05-04 18:31 | 53.93241 | 11.31263 | 29328 ft | 501 kts | 23° |
| 2026-05-04 18:31 | 53.96344 | 11.34024 | 28511 ft | 501 kts | 23° |
| 2026-05-04 18:31 | 53.99391 | 11.36745 | 28230 ft | 499 kts | 22° |
| 2026-05-04 18:32 | 54.05598 | 11.42288 | 28016 ft | 501 kts | 22° |
| 2026-05-04 18:32 | 54.08684 | 11.45052 | 27980 ft | 498 kts | 22° |
| 2026-05-04 18:32 | 54.11726 | 11.47779 | 27995 ft | 499 kts | 22° |
| 2026-05-04 18:32 | 54.14812 | 11.50546 | 27958 ft | 498 kts | 22° |
| 2026-05-04 18:33 | 54.17805 | 11.53243 | 27764 ft | 484 kts | 23° |
| 2026-05-04 18:33 | 54.20735 | 11.56017 | 27283 ft | 480 kts | 25° |
| 2026-05-04 18:33 | 54.23605 | 11.58951 | 26568 ft | 480 kts | 26° |
| 2026-05-04 18:33 | 54.26431 | 11.61933 | 25781 ft | 481 kts | 26° |
| 2026-05-04 18:34 | 54.29268 | 11.64952 | 25260 ft | 472 kts | 26° |
| 2026-05-04 18:34 | 54.32029 | 11.67889 | 24801 ft | 459 kts | 26° |
| 2026-05-04 18:34 | 54.34706 | 11.70715 | 24106 ft | 454 kts | 26° |
| 2026-05-04 18:34 | 54.37400 | 11.73535 | 23320 ft | 451 kts | 25° |
| 2026-05-04 18:35 | 54.40075 | 11.76321 | 22511 ft | 446 kts | 26° |
| 2026-05-04 18:35 | 54.42696 | 11.79051 | 21843 ft | 439 kts | 26° |
| 2026-05-04 18:35 | 54.45271 | 11.81735 | 21230 ft | 431 kts | 26° |
| 2026-05-04 18:35 | 54.47825 | 11.84400 | 20563 ft | 425 kts | 27° |
| 2026-05-04 18:36 | 54.50347 | 11.87036 | 19826 ft | 420 kts | 27° |
| 2026-05-04 18:36 | 54.52814 | 11.89616 | 19110 ft | 417 kts | 27° |
| 2026-05-04 18:36 | 54.55282 | 11.92203 | 18465 ft | 412 kts | 28° |
| 2026-05-04 18:36 | 54.57717 | 11.94761 | 17799 ft | 406 kts | 28° |
| 2026-05-04 18:37 | 54.60096 | 11.97263 | 17087 ft | 401 kts | 28° |
| 2026-05-04 18:37 | 54.62481 | 11.99776 | 16364 ft | 397 kts | 28° |
| 2026-05-04 18:37 | 54.64830 | 12.02254 | 15665 ft | 393 kts | 28° |
| 2026-05-04 18:37 | 54.67132 | 12.04686 | 15017 ft | 389 kts | 28° |
| 2026-05-04 18:38 | 54.69444 | 12.07131 | 14335 ft | 386 kts | 28° |
| 2026-05-04 18:38 | 54.71726 | 12.09548 | 13667 ft | 383 kts | 28° |
| 2026-05-04 18:38 | 54.73991 | 12.11951 | 12957 ft | 379 kts | 28° |
| 2026-05-04 18:38 | 54.76200 | 12.14297 | 12323 ft | 374 kts | 28° |
| 2026-05-04 18:39 | 54.78412 | 12.16649 | 11677 ft | 370 kts | 28° |
| 2026-05-04 18:39 | 54.80598 | 12.18977 | 11031 ft | 367 kts | 28° |
| 2026-05-04 18:39 | 54.82766 | 12.21288 | 10400 ft | 363 kts | 28° |
| 2026-05-04 18:39 | 54.84906 | 12.23573 | 9785 ft | 359 kts | 28° |
| 2026-05-04 18:40 | 54.87007 | 12.25818 | 9198 ft | 358 kts | 28° |
| 2026-05-04 18:40 | 54.89121 | 12.28080 | 9054 ft | 358 kts | 28° |
| 2026-05-04 18:40 | 54.91247 | 12.30356 | 8988 ft | 356 kts | 28° |
| 2026-05-04 18:40 | 54.93346 | 12.32610 | 8963 ft | 351 kts | 28° |
| 2026-05-04 18:41 | 54.95396 | 12.34812 | 8971 ft | 352 kts | 28° |
| 2026-05-04 18:41 | 54.97497 | 12.37070 | 8961 ft | 353 kts | 28° |
| 2026-05-04 18:41 | 54.99591 | 12.39325 | 8954 ft | 352 kts | 28° |
| 2026-05-04 18:41 | 55.01678 | 12.41575 | 8952 ft | 352 kts | 28° |
| 2026-05-04 18:42 | 55.03746 | 12.43807 | 8953 ft | 352 kts | 28° |
| 2026-05-04 18:42 | 55.05824 | 12.46054 | 8958 ft | 352 kts | 28° |
| 2026-05-04 18:42 | 55.07909 | 12.48310 | 8953 ft | 352 kts | 28° |
| 2026-05-04 18:42 | 55.09994 | 12.50570 | 8952 ft | 352 kts | 28° |
| 2026-05-04 18:43 | 55.12077 | 12.52830 | 8956 ft | 352 kts | 28° |
| 2026-05-04 18:43 | 55.14137 | 12.55069 | 8971 ft | 352 kts | 28° |
| 2026-05-04 18:43 | 55.16220 | 12.57334 | 8956 ft | 353 kts | 28° |
| 2026-05-04 18:43 | 55.18303 | 12.59602 | 8956 ft | 352 kts | 28° |
| 2026-05-04 18:44 | 55.20388 | 12.61876 | 8958 ft | 352 kts | 28° |
| 2026-05-04 18:44 | 55.21772 | 12.63386 | 8954 ft | 352 kts | 28° |
| 2026-05-04 18:44 | 55.24654 | 12.66068 | 8809 ft | 344 kts | 17° |
| 2026-05-04 18:44 | 55.26879 | 12.67324 | 8503 ft | 338 kts | 12° |
| 2026-05-04 18:45 | 55.29149 | 12.68467 | 7954 ft | 339 kts | 12° |
| 2026-05-04 18:45 | 55.31418 | 12.69656 | 7440 ft | 339 kts | 14° |
| 2026-05-04 18:45 | 55.33658 | 12.70898 | 7034 ft | 336 kts | 14° |
| 2026-05-04 18:45 | 55.35878 | 12.72158 | 6596 ft | 333 kts | 14° |
| 2026-05-04 18:46 | 55.38062 | 12.73409 | 6146 ft | 332 kts | 15° |
| 2026-05-04 18:46 | 55.40251 | 12.74665 | 5732 ft | 329 kts | 15° |
| 2026-05-04 18:46 | 55.42415 | 12.75907 | 5309 ft | 326 kts | 15° |
| 2026-05-04 18:46 | 55.44569 | 12.77142 | 4871 ft | 324 kts | 15° |
| 2026-05-04 18:47 | 55.46710 | 12.78372 | 4422 ft | 322 kts | 15° |
| 2026-05-04 18:47 | 55.48808 | 12.79579 | 4053 ft | 319 kts | 15° |
| 2026-05-04 18:47 | 55.50905 | 12.80787 | 4040 ft | 311 kts | 15° |
| 2026-05-04 18:47 | 55.52956 | 12.81969 | 3991 ft | 304 kts | 15° |
| 2026-05-04 18:48 | 55.54892 | 12.83090 | 3980 ft | 280 kts | 15° |
| 2026-05-04 18:48 | 55.56657 | 12.84184 | 3978 ft | 259 kts | 19° |
| 2026-05-04 18:48 | 55.58247 | 12.85333 | 3977 ft | 241 kts | 19° |
| 2026-05-04 18:48 | 55.59769 | 12.86448 | 4026 ft | 234 kts | 19° |
| 2026-05-04 18:49 | 55.61287 | 12.87549 | 4001 ft | 234 kts | 19° |
| 2026-05-04 18:49 | 55.62786 | 12.88697 | 4017 ft | 235 kts | 26° |
| 2026-05-04 18:49 | 55.64052 | 12.90497 | 4037 ft | 236 kts | 40° |
| 2026-05-04 18:49 | 55.65260 | 12.92473 | 3997 ft | 237 kts | 39° |
| 2026-05-04 18:50 | 55.66484 | 12.94424 | 4009 ft | 236 kts | 38° |
| 2026-05-04 18:50 | 55.67704 | 12.96348 | 3867 ft | 233 kts | 37° |
| 2026-05-04 18:50 | 55.69073 | 12.97757 | 3422 ft | 226 kts | 10° |
| 2026-05-04 18:50 | 55.70569 | 12.97623 | 3068 ft | 214 kts | 335° |
| 2026-05-04 18:51 | 55.71688 | 12.96118 | 3045 ft | 196 kts | 312° |
| 2026-05-04 18:51 | 55.72594 | 12.94317 | 3007 ft | 194 kts | 310° |
| 2026-05-04 18:51 | 55.73468 | 12.92528 | 3005 ft | 194 kts | 308° |
| 2026-05-04 18:51 | 55.74002 | 12.90372 | 2817 ft | 194 kts | 272° |
| 2026-05-04 18:52 | 55.73524 | 12.88174 | 2478 ft | 198 kts | 229° |
| 2026-05-04 18:52 | 55.72459 | 12.86633 | 2089 ft | 199 kts | 231° |
| 2026-05-04 18:52 | 55.71825 | 12.84614 | 2043 ft | 178 kts | 246° |
| 2026-05-04 18:52 | 55.70992 | 12.82963 | 2035 ft | 184 kts | 222° |
| 2026-05-04 18:53 | 55.70009 | 12.81440 | 2002 ft | 186 kts | 227° |
| 2026-05-04 18:53 | 55.69138 | 12.79792 | 1992 ft | 180 kts | 235° |
| 2026-05-04 18:53 | 55.68384 | 12.78073 | 1989 ft | 177 kts | 237° |
| 2026-05-04 18:53 | 55.67652 | 12.76355 | 1891 ft | 171 kts | 236° |
| 2026-05-04 18:54 | 55.66922 | 12.74689 | 1569 ft | 168 kts | 235° |
| 2026-05-04 18:54 | 55.66179 | 12.73159 | 1313 ft | 161 kts | 232° |
| 2026-05-04 18:54 | 55.65447 | 12.71689 | 831 ft | 160 kts | 231° |
| 2026-05-04 18:54 | 55.64712 | 12.70271 | 516 ft | 150 kts | 227° |
| 2026-05-04 18:55 | 55.63961 | 12.69056 | 285 ft | 142 kts | 224° |
| 2026-05-04 18:55 | 55.62497 | 12.66700 | 31 ft | 144 kts | 221° |
| 2026-05-04 18:55 | 55.61775 | 12.65574 | 19 ft | 112 kts | 221° |
| 2026-05-04 18:56 | 55.61476 | 12.65102 | 17 ft | 16 kts | 221° |
| 2026-05-04 18:56 | 55.61321 | 12.64840 | 21 ft | 40 kts | 233° |
| 2026-05-04 18:56 | 55.61237 | 12.64522 | 18 ft | 18 kts | 251° |
| 2026-05-04 18:56 | 55.61216 | 12.64408 | 20 ft | 10 kts | 252° |
| 2026-05-04 18:57 | 55.61195 | 12.64297 | 4 ft | 10 kts | 252° |
| 2026-05-04 18:57 | 55.61189 | 12.64175 | 14 ft | 10 kts | 291° |
| 2026-05-04 18:57 | 55.61248 | 12.64112 | 15 ft | 10 kts | 353° |
| 2026-05-04 18:57 | 55.61311 | 12.64149 | 17 ft | 10 kts | 33° |
| 2026-05-04 18:58 | 55.61369 | 12.64215 | 17 ft | 10 kts | 32° |
| 2026-05-04 18:58 | 55.61427 | 12.64282 | 16 ft | 11 kts | 32° |
| 2026-05-04 18:58 | 55.61499 | 12.64363 | 19 ft | 14 kts | 32° |
| 2026-05-04 18:58 | 55.61597 | 12.64477 | 19 ft | 19 kts | 33° |
| 2026-05-04 18:59 | 55.61716 | 12.64617 | 19 ft | 23 kts | 33° |
| 2026-05-04 18:59 | 55.61861 | 12.64783 | 18 ft | 27 kts | 32° |
| 2026-05-04 18:59 | 55.61978 | 12.64914 | 18 ft | 11 kts | 32° |
| 2026-05-04 18:59 | 55.62048 | 12.64993 | 22 ft | 14 kts | 32° |
| 2026-05-04 19:00 | 55.62133 | 12.65093 | 23 ft | 15 kts | 34° |
| 2026-05-04 19:00 | 55.62235 | 12.65198 | 22 ft | 19 kts | 11° |
| 2026-05-04 19:00 | 55.62383 | 12.65191 | 20 ft | 22 kts | 357° |
| 2026-05-04 19:00 | 55.62439 | 12.65373 | 17 ft | 15 kts | 91° |
| 2026-05-04 19:01 | 55.62441 | 12.65453 | 17 ft | 0 kts | 88° |